Terminal Aerodrome Forecast
Issued by NWS Wilmington, OH

Home | Current Version | Previous Version | Text Only | Print | Product List | Glossary On
Versions: 1 2 3 4 5 6 7 8 9 10 11 12 13 14 15 16 17
000
FTUS41 KILN 310800 AAA
TAFCMH
TAF AMD
KCMH 310858Z 3109/0106 19003KT P6SM SCT040 OVC090
     FM311400 22008KT P6SM VCSH OVC040
     FM311700 27012G20KT 5SM -SHRA BR OVC025
     FM010000 32014G23KT P6SM VCSH OVC018=

USA.gov is the U.S. government's official web portal to all federal, state and local government web resources and services.